Ekin, Indiana
Current Conditions -  °F | °C
As of 1:15 PM on Thursday 29 Jan 2015 (Local Time) from KTYQ Reporting Station
Haze Haze  
Wind Chill: -4°   Ceiling: 800
Heat Index:   Visibility: 1.5mi
Dew Point: -1°   Wind: 14mph
Humidity: 87%   Direction: 280°W
Pressure: 29.89"   Gusts: 25mph
Location:  40.1832°N, 85.9359°W
Report Text: KTYQ 291815Z AUTO 28012G22KT 1 1/2SM BR OVC008 02/00 A2989 RMK AO2 T00151005
Loading
Personal Weather Stations






























Interactive Weather Map New forecast layout! Learn more

10-Day Weather Forecast

Advertisements
Track Severe Weather on mobile